sensor_id;sensor_type;location;lat;lon;timestamp;P1;durP1;ratioP1;P2;durP2;ratioP2
21166;SDS011;10741;52.272;9.580;2023-04-15T00:00:15;9.53;;;7.73;;
21166;SDS011;10741;52.272;9.580;2023-04-15T00:02:41;9.50;;;7.73;;
21166;SDS011;10741;52.272;9.580;2023-04-15T00:05:08;8.60;;;7.70;;
21166;SDS011;10741;52.272;9.580;2023-04-15T00:07:34;9.07;;;7.83;;
21166;SDS011;10741;52.272;9.580;2023-04-15T00:10:00;8.73;;;7.83;;
21166;SDS011;10741;52.272;9.580;2023-04-15T00:12:26;11.00;;;8.33;;
21166;SDS011;10741;52.272;9.580;2023-04-15T00:14:52;10.60;;;8.30;;
21166;SDS011;10741;52.272;9.580;2023-04-15T00:17:18;10.23;;;9.20;;
21166;SDS011;10741;52.272;9.580;2023-04-15T00:19:44;9.20;;;7.90;;
21166;SDS011;10741;52.272;9.580;2023-04-15T00:22:10;9.70;;;8.43;;
21166;SDS011;10741;52.272;9.580;2023-04-15T00:24:37;9.87;;;8.70;;
21166;SDS011;10741;52.272;9.580;2023-04-15T00:27:03;10.30;;;8.27;;
21166;SDS011;10741;52.272;9.580;2023-04-15T00:29:29;9.33;;;7.67;;
21166;SDS011;10741;52.272;9.580;2023-04-15T00:31:55;9.73;;;7.70;;
21166;SDS011;10741;52.272;9.580;2023-04-15T00:34:25;8.87;;;7.97;;
21166;SDS011;10741;52.272;9.580;2023-04-15T00:36:52;10.57;;;7.47;;
21166;SDS011;10741;52.272;9.580;2023-04-15T00:39:17;9.47;;;7.43;;
21166;SDS011;10741;52.272;9.580;2023-04-15T00:41:43;9.97;;;7.73;;
21166;SDS011;10741;52.272;9.580;2023-04-15T00:44:10;12.13;;;8.10;;
21166;SDS011;10741;52.272;9.580;2023-04-15T00:46:36;8.37;;;7.40;;
21166;SDS011;10741;52.272;9.580;2023-04-15T00:49:04;9.80;;;8.40;;
21166;SDS011;10741;52.272;9.580;2023-04-15T00:51:30;8.27;;;7.43;;
21166;SDS011;10741;52.272;9.580;2023-04-15T00:54:03;9.33;;;8.30;;
21166;SDS011;10741;52.272;9.580;2023-04-15T00:56:30;10.50;;;8.10;;
21166;SDS011;10741;52.272;9.580;2023-04-15T00:58:59;10.37;;;8.00;;
21166;SDS011;10741;52.272;9.580;2023-04-15T01:01:26;8.70;;;7.80;;
21166;SDS011;10741;52.272;9.580;2023-04-15T01:03:54;8.53;;;7.63;;
21166;SDS011;10741;52.272;9.580;2023-04-15T01:06:22;8.40;;;7.47;;
21166;SDS011;10741;52.272;9.580;2023-04-15T01:08:48;8.90;;;7.37;;
21166;SDS011;10741;52.272;9.580;2023-04-15T01:11:15;10.13;;;7.83;;
21166;SDS011;10741;52.272;9.580;2023-04-15T01:13:42;10.23;;;7.00;;
21166;SDS011;10741;52.272;9.580;2023-04-15T01:16:08;10.10;;;7.40;;
21166;SDS011;10741;52.272;9.580;2023-04-15T01:18:34;8.97;;;7.70;;
21166;SDS011;10741;52.272;9.580;2023-04-15T01:21:04;8.63;;;7.60;;
21166;SDS011;10741;52.272;9.580;2023-04-15T01:23:31;9.37;;;7.53;;
21166;SDS011;10741;52.272;9.580;2023-04-15T01:25:58;9.17;;;7.10;;
21166;SDS011;10741;52.272;9.580;2023-04-15T01:28:24;9.67;;;7.33;;
21166;SDS011;10741;52.272;9.580;2023-04-15T01:30:50;8.67;;;7.00;;
21166;SDS011;10741;52.272;9.580;2023-04-15T01:33:36;9.00;;;6.90;;
21166;SDS011;10741;52.272;9.580;2023-04-15T01:36:03;9.43;;;7.03;;
21166;SDS011;10741;52.272;9.580;2023-04-15T01:38:30;8.13;;;7.23;;
21166;SDS011;10741;52.272;9.580;2023-04-15T01:40:57;8.13;;;7.07;;
21166;SDS011;10741;52.272;9.580;2023-04-15T01:43:24;7.93;;;7.10;;
21166;SDS011;10741;52.272;9.580;2023-04-15T01:45:50;10.13;;;7.87;;
21166;SDS011;10741;52.272;9.580;2023-04-15T01:48:16;7.97;;;7.17;;
21166;SDS011;10741;52.272;9.580;2023-04-15T01:50:42;10.00;;;7.63;;
21166;SDS011;10741;52.272;9.580;2023-04-15T01:53:08;8.67;;;7.63;;
21166;SDS011;10741;52.272;9.580;2023-04-15T01:55:35;9.93;;;7.20;;
21166;SDS011;10741;52.272;9.580;2023-04-15T01:58:01;9.83;;;8.40;;
21166;SDS011;10741;52.272;9.580;2023-04-15T02:00:27;13.47;;;8.10;;
21166;SDS011;10741;52.272;9.580;2023-04-15T02:02:54;10.63;;;8.30;;
21166;SDS011;10741;52.272;9.580;2023-04-15T02:05:19;10.40;;;8.50;;
21166;SDS011;10741;52.272;9.580;2023-04-15T02:07:45;11.20;;;9.10;;
21166;SDS011;10741;52.272;9.580;2023-04-15T02:10:11;9.87;;;8.47;;
21166;SDS011;10741;52.272;9.580;2023-04-15T02:12:40;11.87;;;8.93;;
21166;SDS011;10741;52.272;9.580;2023-04-15T02:15:07;11.13;;;8.93;;
21166;SDS011;10741;52.272;9.580;2023-04-15T02:17:34;12.37;;;9.43;;
21166;SDS011;10741;52.272;9.580;2023-04-15T02:20:01;12.10;;;9.00;;
21166;SDS011;10741;52.272;9.580;2023-04-15T02:22:30;10.73;;;9.10;;
21166;SDS011;10741;52.272;9.580;2023-04-15T02:24:55;12.37;;;10.13;;
21166;SDS011;10741;52.272;9.580;2023-04-15T02:27:21;11.80;;;9.77;;
21166;SDS011;10741;52.272;9.580;2023-04-15T02:29:47;12.00;;;9.03;;
21166;SDS011;10741;52.272;9.580;2023-04-15T02:32:15;16.17;;;10.83;;
21166;SDS011;10741;52.272;9.580;2023-04-15T02:34:41;14.03;;;10.27;;
21166;SDS011;10741;52.272;9.580;2023-04-15T02:37:07;14.23;;;10.80;;
21166;SDS011;10741;52.272;9.580;2023-04-15T02:39:34;14.93;;;10.83;;
21166;SDS011;10741;52.272;9.580;2023-04-15T02:42:00;13.30;;;10.37;;
21166;SDS011;10741;52.272;9.580;2023-04-15T02:44:26;14.63;;;10.50;;
21166;SDS011;10741;52.272;9.580;2023-04-15T02:46:52;14.07;;;10.80;;
21166;SDS011;10741;52.272;9.580;2023-04-15T02:49:21;14.30;;;11.30;;
21166;SDS011;10741;52.272;9.580;2023-04-15T02:51:47;14.23;;;10.80;;
21166;SDS011;10741;52.272;9.580;2023-04-15T02:54:23;15.63;;;11.87;;
21166;SDS011;10741;52.272;9.580;2023-04-15T02:56:49;14.40;;;10.73;;
21166;SDS011;10741;52.272;9.580;2023-04-15T02:59:15;17.27;;;12.00;;
21166;SDS011;10741;52.272;9.580;2023-04-15T03:01:41;15.57;;;12.17;;
21166;SDS011;10741;52.272;9.580;2023-04-15T03:04:06;16.23;;;12.60;;
21166;SDS011;10741;52.272;9.580;2023-04-15T03:06:33;16.93;;;12.43;;
21166;SDS011;10741;52.272;9.580;2023-04-15T03:08:59;16.77;;;12.33;;
21166;SDS011;10741;52.272;9.580;2023-04-15T03:11:26;17.87;;;13.80;;
21166;SDS011;10741;52.272;9.580;2023-04-15T03:13:53;17.13;;;12.07;;
21166;SDS011;10741;52.272;9.580;2023-04-15T03:16:19;17.43;;;12.90;;
21166;SDS011;10741;52.272;9.580;2023-04-15T03:18:45;16.47;;;13.33;;
21166;SDS011;10741;52.272;9.580;2023-04-15T03:21:10;17.83;;;13.50;;
21166;SDS011;10741;52.272;9.580;2023-04-15T03:23:36;17.43;;;13.13;;
21166;SDS011;10741;52.272;9.580;2023-04-15T03:26:03;20.07;;;14.27;;
21166;SDS011;10741;52.272;9.580;2023-04-15T03:28:29;16.77;;;12.83;;
21166;SDS011;10741;52.272;9.580;2023-04-15T03:30:56;18.03;;;13.27;;
21166;SDS011;10741;52.272;9.580;2023-04-15T03:33:22;18.03;;;12.43;;
21166;SDS011;10741;52.272;9.580;2023-04-15T03:35:49;17.93;;;13.77;;
21166;SDS011;10741;52.272;9.580;2023-04-15T03:38:16;17.40;;;13.40;;
21166;SDS011;10741;52.272;9.580;2023-04-15T03:40:42;18.43;;;13.33;;
21166;SDS011;10741;52.272;9.580;2023-04-15T03:43:07;17.47;;;13.03;;
21166;SDS011;10741;52.272;9.580;2023-04-15T03:45:33;19.33;;;13.77;;
21166;SDS011;10741;52.272;9.580;2023-04-15T03:47:59;17.13;;;13.63;;
21166;SDS011;10741;52.272;9.580;2023-04-15T03:50:25;17.53;;;13.77;;
21166;SDS011;10741;52.272;9.580;2023-04-15T03:52:51;17.53;;;14.00;;
21166;SDS011;10741;52.272;9.580;2023-04-15T03:55:17;20.40;;;13.53;;
21166;SDS011;10741;52.272;9.580;2023-04-15T03:57:44;18.87;;;14.60;;
21166;SDS011;10741;52.272;9.580;2023-04-15T04:00:10;22.23;;;14.77;;
21166;SDS011;10741;52.272;9.580;2023-04-15T04:02:36;21.03;;;15.73;;
21166;SDS011;10741;52.272;9.580;2023-04-15T04:05:01;21.27;;;14.93;;
21166;SDS011;10741;52.272;9.580;2023-04-15T04:07:28;22.60;;;14.97;;
21166;SDS011;10741;52.272;9.580;2023-04-15T04:09:54;23.33;;;16.53;;
21166;SDS011;10741;52.272;9.580;2023-04-15T04:12:21;21.83;;;16.23;;
21166;SDS011;10741;52.272;9.580;2023-04-15T04:14:46;22.53;;;15.57;;
21166;SDS011;10741;52.272;9.580;2023-04-15T04:17:12;21.60;;;15.73;;
21166;SDS011;10741;52.272;9.580;2023-04-15T04:19:38;27.43;;;16.70;;
21166;SDS011;10741;52.272;9.580;2023-04-15T04:22:03;22.63;;;16.13;;
21166;SDS011;10741;52.272;9.580;2023-04-15T04:24:29;23.03;;;16.10;;
21166;SDS011;10741;52.272;9.580;2023-04-15T04:26:55;24.63;;;16.93;;
21166;SDS011;10741;52.272;9.580;2023-04-15T04:29:21;25.37;;;16.77;;
21166;SDS011;10741;52.272;9.580;2023-04-15T04:31:47;24.40;;;16.93;;
21166;SDS011;10741;52.272;9.580;2023-04-15T04:34:13;25.17;;;18.50;;
21166;SDS011;10741;52.272;9.580;2023-04-15T04:36:39;25.70;;;17.50;;
21166;SDS011;10741;52.272;9.580;2023-04-15T04:39:05;24.97;;;18.20;;
21166;SDS011;10741;52.272;9.580;2023-04-15T04:41:31;25.87;;;18.47;;
21166;SDS011;10741;52.272;9.580;2023-04-15T04:43:57;30.20;;;18.93;;
21166;SDS011;10741;52.272;9.580;2023-04-15T04:46:23;23.97;;;17.97;;
21166;SDS011;10741;52.272;9.580;2023-04-15T04:48:49;27.70;;;18.83;;
21166;SDS011;10741;52.272;9.580;2023-04-15T04:51:15;26.30;;;18.47;;
21166;SDS011;10741;52.272;9.580;2023-04-15T04:53:41;27.57;;;19.10;;
21166;SDS011;10741;52.272;9.580;2023-04-15T04:56:07;26.83;;;18.93;;
21166;SDS011;10741;52.272;9.580;2023-04-15T04:58:33;29.17;;;19.63;;
21166;SDS011;10741;52.272;9.580;2023-04-15T05:00:59;30.27;;;19.87;;
21166;SDS011;10741;52.272;9.580;2023-04-15T05:03:24;29.10;;;19.67;;
21166;SDS011;10741;52.272;9.580;2023-04-15T05:05:51;32.37;;;21.30;;
21166;SDS011;10741;52.272;9.580;2023-04-15T05:08:17;30.27;;;20.93;;
21166;SDS011;10741;52.272;9.580;2023-04-15T05:10:42;27.80;;;19.43;;
21166;SDS011;10741;52.272;9.580;2023-04-15T05:13:08;27.47;;;18.77;;
21166;SDS011;10741;52.272;9.580;2023-04-15T05:15:34;28.53;;;19.57;;
21166;SDS011;10741;52.272;9.580;2023-04-15T05:18:01;29.00;;;20.10;;
21166;SDS011;10741;52.272;9.580;2023-04-15T05:20:27;30.13;;;20.17;;
21166;SDS011;10741;52.272;9.580;2023-04-15T05:22:53;32.23;;;21.63;;
21166;SDS011;10741;52.272;9.580;2023-04-15T05:25:19;29.03;;;19.83;;
21166;SDS011;10741;52.272;9.580;2023-04-15T05:27:45;30.70;;;19.47;;
21166;SDS011;10741;52.272;9.580;2023-04-15T05:30:11;31.57;;;20.13;;
21166;SDS011;10741;52.272;9.580;2023-04-15T05:32:37;33.73;;;20.60;;
21166;SDS011;10741;52.272;9.580;2023-04-15T05:35:03;31.40;;;20.37;;
21166;SDS011;10741;52.272;9.580;2023-04-15T05:37:29;29.57;;;19.73;;
21166;SDS011;10741;52.272;9.580;2023-04-15T05:39:54;31.87;;;20.70;;
21166;SDS011;10741;52.272;9.580;2023-04-15T05:42:20;33.03;;;21.17;;
21166;SDS011;10741;52.272;9.580;2023-04-15T05:44:46;32.30;;;20.73;;
21166;SDS011;10741;52.272;9.580;2023-04-15T05:47:12;29.37;;;19.20;;
21166;SDS011;10741;52.272;9.580;2023-04-15T05:49:38;29.47;;;19.53;;
21166;SDS011;10741;52.272;9.580;2023-04-15T05:52:03;31.93;;;19.47;;
21166;SDS011;10741;52.272;9.580;2023-04-15T05:54:29;32.93;;;19.67;;
21166;SDS011;10741;52.272;9.580;2023-04-15T05:56:55;35.70;;;20.23;;
21166;SDS011;10741;52.272;9.580;2023-04-15T05:59:22;33.50;;;20.07;;
21166;SDS011;10741;52.272;9.580;2023-04-15T06:01:48;32.40;;;20.07;;
21166;SDS011;10741;52.272;9.580;2023-04-15T06:04:14;34.73;;;20.50;;
21166;SDS011;10741;52.272;9.580;2023-04-15T06:06:41;33.97;;;21.00;;
21166;SDS011;10741;52.272;9.580;2023-04-15T06:09:06;35.87;;;20.03;;
21166;SDS011;10741;52.272;9.580;2023-04-15T06:11:32;38.17;;;20.50;;
21166;SDS011;10741;52.272;9.580;2023-04-15T06:13:58;37.00;;;21.00;;
21166;SDS011;10741;52.272;9.580;2023-04-15T06:16:23;34.73;;;20.77;;
21166;SDS011;10741;52.272;9.580;2023-04-15T06:18:49;34.27;;;20.63;;
21166;SDS011;10741;52.272;9.580;2023-04-15T06:21:15;35.33;;;19.67;;
21166;SDS011;10741;52.272;9.580;2023-04-15T06:23:41;32.73;;;19.33;;
21166;SDS011;10741;52.272;9.580;2023-04-15T06:26:07;33.70;;;18.67;;
21166;SDS011;10741;52.272;9.580;2023-04-15T06:28:32;33.53;;;19.13;;
21166;SDS011;10741;52.272;9.580;2023-04-15T06:30:58;34.87;;;19.00;;
21166;SDS011;10741;52.272;9.580;2023-04-15T06:33:25;35.90;;;19.70;;
21166;SDS011;10741;52.272;9.580;2023-04-15T06:35:51;32.20;;;18.50;;
21166;SDS011;10741;52.272;9.580;2023-04-15T06:38:16;33.90;;;18.43;;
21166;SDS011;10741;52.272;9.580;2023-04-15T06:40:42;32.93;;;17.83;;
21166;SDS011;10741;52.272;9.580;2023-04-15T06:43:08;34.63;;;18.20;;
21166;SDS011;10741;52.272;9.580;2023-04-15T06:45:34;34.43;;;17.97;;
21166;SDS011;10741;52.272;9.580;2023-04-15T06:48:00;33.40;;;17.20;;
21166;SDS011;10741;52.272;9.580;2023-04-15T06:50:25;30.23;;;16.53;;
21166;SDS011;10741;52.272;9.580;2023-04-15T06:52:52;29.80;;;17.00;;
21166;SDS011;10741;52.272;9.580;2023-04-15T06:55:18;26.43;;;15.10;;
21166;SDS011;10741;52.272;9.580;2023-04-15T06:57:44;27.23;;;15.07;;
21166;SDS011;10741;52.272;9.580;2023-04-15T07:00:10;29.07;;;16.33;;
21166;SDS011;10741;52.272;9.580;2023-04-15T07:02:36;31.23;;;15.57;;
21166;SDS011;10741;52.272;9.580;2023-04-15T07:05:02;27.40;;;15.30;;
21166;SDS011;10741;52.272;9.580;2023-04-15T07:07:29;28.47;;;13.97;;
21166;SDS011;10741;52.272;9.580;2023-04-15T07:09:55;24.70;;;14.33;;
21166;SDS011;10741;52.272;9.580;2023-04-15T07:12:21;23.47;;;13.33;;
21166;SDS011;10741;52.272;9.580;2023-04-15T07:14:47;26.00;;;13.27;;
21166;SDS011;10741;52.272;9.580;2023-04-15T07:17:13;24.03;;;13.50;;
21166;SDS011;10741;52.272;9.580;2023-04-15T07:19:39;23.77;;;13.43;;
21166;SDS011;10741;52.272;9.580;2023-04-15T07:22:05;22.80;;;13.03;;
21166;SDS011;10741;52.272;9.580;2023-04-15T07:24:31;23.27;;;13.37;;
21166;SDS011;10741;52.272;9.580;2023-04-15T07:26:57;21.10;;;12.80;;
21166;SDS011;10741;52.272;9.580;2023-04-15T07:29:23;24.60;;;12.50;;
21166;SDS011;10741;52.272;9.580;2023-04-15T07:31:50;24.27;;;12.17;;
21166;SDS011;10741;52.272;9.580;2023-04-15T07:34:18;18.83;;;11.40;;
21166;SDS011;10741;52.272;9.580;2023-04-15T07:36:44;19.57;;;11.27;;
21166;SDS011;10741;52.272;9.580;2023-04-15T07:39:14;19.83;;;10.97;;
21166;SDS011;10741;52.272;9.580;2023-04-15T07:41:40;19.17;;;10.60;;
21166;SDS011;10741;52.272;9.580;2023-04-15T07:44:06;18.27;;;10.20;;
21166;SDS011;10741;52.272;9.580;2023-04-15T07:46:32;17.87;;;10.53;;
21166;SDS011;10741;52.272;9.580;2023-04-15T07:48:58;20.97;;;10.53;;
21166;SDS011;10741;52.272;9.580;2023-04-15T07:51:23;19.27;;;10.47;;
21166;SDS011;10741;52.272;9.580;2023-04-15T07:53:49;19.37;;;11.23;;
21166;SDS011;10741;52.272;9.580;2023-04-15T07:56:15;19.00;;;10.37;;
21166;SDS011;10741;52.272;9.580;2023-04-15T07:58:41;20.33;;;10.70;;
21166;SDS011;10741;52.272;9.580;2023-04-15T08:01:07;17.90;;;10.23;;
21166;SDS011;10741;52.272;9.580;2023-04-15T08:03:33;17.20;;;10.23;;
21166;SDS011;10741;52.272;9.580;2023-04-15T08:05:59;16.90;;;10.50;;
21166;SDS011;10741;52.272;9.580;2023-04-15T08:08:25;17.07;;;10.27;;
21166;SDS011;10741;52.272;9.580;2023-04-15T08:10:51;19.33;;;10.27;;
21166;SDS011;10741;52.272;9.580;2023-04-15T08:13:17;19.07;;;10.13;;
21166;SDS011;10741;52.272;9.580;2023-04-15T08:15:43;20.73;;;11.17;;
21166;SDS011;10741;52.272;9.580;2023-04-15T08:18:09;16.60;;;9.70;;
21166;SDS011;10741;52.272;9.580;2023-04-15T08:20:35;19.07;;;10.00;;
21166;SDS011;10741;52.272;9.580;2023-04-15T08:23:02;18.27;;;10.53;;
21166;SDS011;10741;52.272;9.580;2023-04-15T08:25:28;17.20;;;10.20;;
21166;SDS011;10741;52.272;9.580;2023-04-15T08:27:54;16.20;;;9.70;;
21166;SDS011;10741;52.272;9.580;2023-04-15T08:30:23;18.43;;;9.67;;
21166;SDS011;10741;52.272;9.580;2023-04-15T08:32:49;17.17;;;9.40;;
21166;SDS011;10741;52.272;9.580;2023-04-15T08:35:15;17.60;;;10.17;;
21166;SDS011;10741;52.272;9.580;2023-04-15T08:37:41;18.83;;;10.30;;
21166;SDS011;10741;52.272;9.580;2023-04-15T08:40:07;21.70;;;10.53;;
21166;SDS011;10741;52.272;9.580;2023-04-15T08:42:40;17.57;;;10.03;;
21166;SDS011;10741;52.272;9.580;2023-04-15T08:45:08;16.97;;;9.70;;
21166;SDS011;10741;52.272;9.580;2023-04-15T08:47:36;17.70;;;9.87;;
21166;SDS011;10741;52.272;9.580;2023-04-15T08:50:04;16.40;;;9.47;;
21166;SDS011;10741;52.272;9.580;2023-04-15T08:52:31;17.13;;;9.20;;
21166;SDS011;10741;52.272;9.580;2023-04-15T08:54:57;16.70;;;10.10;;
21166;SDS011;10741;52.272;9.580;2023-04-15T08:57:29;13.70;;;8.03;;
21166;SDS011;10741;52.272;9.580;2023-04-15T08:59:57;16.63;;;9.40;;
21166;SDS011;10741;52.272;9.580;2023-04-15T09:02:26;14.57;;;8.40;;
21166;SDS011;10741;52.272;9.580;2023-04-15T09:04:52;14.53;;;8.40;;
21166;SDS011;10741;52.272;9.580;2023-04-15T09:07:18;15.30;;;8.77;;
21166;SDS011;10741;52.272;9.580;2023-04-15T09:09:44;15.23;;;8.77;;
21166;SDS011;10741;52.272;9.580;2023-04-15T09:12:10;15.07;;;8.80;;
21166;SDS011;10741;52.272;9.580;2023-04-15T09:14:36;13.67;;;9.07;;
21166;SDS011;10741;52.272;9.580;2023-04-15T09:17:08;17.97;;;8.80;;
21166;SDS011;10741;52.272;9.580;2023-04-15T09:19:34;13.33;;;8.73;;
21166;SDS011;10741;52.272;9.580;2023-04-15T09:22:00;14.03;;;8.03;;
21166;SDS011;10741;52.272;9.580;2023-04-15T09:24:37;11.23;;;7.43;;
21166;SDS011;10741;52.272;9.580;2023-04-15T09:27:03;12.70;;;8.80;;
21166;SDS011;10741;52.272;9.580;2023-04-15T09:29:30;14.23;;;8.40;;
21166;SDS011;10741;52.272;9.580;2023-04-15T09:31:56;11.97;;;8.00;;
21166;SDS011;10741;52.272;9.580;2023-04-15T09:34:39;13.20;;;8.17;;
21166;SDS011;10741;52.272;9.580;2023-04-15T09:37:05;13.00;;;8.00;;
21166;SDS011;10741;52.272;9.580;2023-04-15T09:39:47;11.33;;;7.93;;
21166;SDS011;10741;52.272;9.580;2023-04-15T09:42:14;13.70;;;7.97;;
21166;SDS011;10741;52.272;9.580;2023-04-15T09:44:41;13.87;;;8.60;;
21166;SDS011;10741;52.272;9.580;2023-04-15T09:47:07;12.63;;;7.87;;
21166;SDS011;10741;52.272;9.580;2023-04-15T09:49:33;12.37;;;8.33;;
21166;SDS011;10741;52.272;9.580;2023-04-15T09:52:00;13.43;;;8.43;;
21166;SDS011;10741;52.272;9.580;2023-04-15T09:54:35;13.33;;;8.50;;
21166;SDS011;10741;52.272;9.580;2023-04-15T09:57:08;12.87;;;7.83;;
21166;SDS011;10741;52.272;9.580;2023-04-15T09:59:34;11.30;;;7.80;;
21166;SDS011;10741;52.272;9.580;2023-04-15T10:02:01;11.03;;;8.10;;
21166;SDS011;10741;52.272;9.580;2023-04-15T10:04:31;12.27;;;8.70;;
21166;SDS011;10741;52.272;9.580;2023-04-15T10:07:00;13.90;;;8.70;;
21166;SDS011;10741;52.272;9.580;2023-04-15T10:09:28;12.60;;;7.63;;
21166;SDS011;10741;52.272;9.580;2023-04-15T10:11:54;13.73;;;8.53;;
21166;SDS011;10741;52.272;9.580;2023-04-15T10:14:20;13.80;;;8.17;;
21166;SDS011;10741;52.272;9.580;2023-04-15T10:16:47;13.20;;;8.17;;
21166;SDS011;10741;52.272;9.580;2023-04-15T10:19:14;11.10;;;8.03;;
21166;SDS011;10741;52.272;9.580;2023-04-15T10:21:42;12.93;;;8.23;;
21166;SDS011;10741;52.272;9.580;2023-04-15T10:24:09;11.77;;;8.13;;
21166;SDS011;10741;52.272;9.580;2023-04-15T10:26:35;14.67;;;8.73;;
21166;SDS011;10741;52.272;9.580;2023-04-15T10:29:02;14.00;;;8.20;;
21166;SDS011;10741;52.272;9.580;2023-04-15T10:31:28;12.43;;;7.57;;
21166;SDS011;10741;52.272;9.580;2023-04-15T10:33:55;13.73;;;8.43;;
21166;SDS011;10741;52.272;9.580;2023-04-15T10:36:21;15.80;;;9.17;;
21166;SDS011;10741;52.272;9.580;2023-04-15T10:38:47;15.07;;;8.60;;
21166;SDS011;10741;52.272;9.580;2023-04-15T10:49:16;14.47;;;8.43;;
21166;SDS011;10741;52.272;9.580;2023-04-15T10:51:56;14.20;;;9.10;;
21166;SDS011;10741;52.272;9.580;2023-04-15T10:56:52;16.30;;;9.37;;
21166;SDS011;10741;52.272;9.580;2023-04-15T10:59:31;18.00;;;9.90;;
21166;SDS011;10741;52.272;9.580;2023-04-15T11:02:01;16.23;;;9.80;;
21166;SDS011;10741;52.272;9.580;2023-04-15T11:12:42;16.90;;;11.13;;
21166;SDS011;10741;52.272;9.580;2023-04-15T11:17:55;18.93;;;11.23;;
21166;SDS011;10741;52.272;9.580;2023-04-15T11:20:21;22.30;;;12.10;;
21166;SDS011;10741;52.272;9.580;2023-04-15T11:22:48;20.70;;;12.47;;
21166;SDS011;10741;52.272;9.580;2023-04-15T11:25:24;20.43;;;12.40;;
21166;SDS011;10741;52.272;9.580;2023-04-15T11:27:51;24.43;;;12.73;;
21166;SDS011;10741;52.272;9.580;2023-04-15T11:30:25;22.93;;;13.00;;
21166;SDS011;10741;52.272;9.580;2023-04-15T11:32:53;22.17;;;14.07;;
21166;SDS011;10741;52.272;9.580;2023-04-15T11:35:23;25.20;;;14.40;;
21166;SDS011;10741;52.272;9.580;2023-04-15T11:37:49;25.93;;;14.77;;
21166;SDS011;10741;52.272;9.580;2023-04-15T11:40:15;25.27;;;14.93;;
21166;SDS011;10741;52.272;9.580;2023-04-15T11:42:42;28.70;;;15.33;;
21166;SDS011;10741;52.272;9.580;2023-04-15T11:45:14;27.73;;;15.37;;
21166;SDS011;10741;52.272;9.580;2023-04-15T11:47:40;32.67;;;16.67;;
21166;SDS011;10741;52.272;9.580;2023-04-15T11:50:20;32.27;;;16.67;;
21166;SDS011;10741;52.272;9.580;2023-04-15T11:52:56;31.87;;;17.87;;
21166;SDS011;10741;52.272;9.580;2023-04-15T11:55:24;36.30;;;18.03;;
21166;SDS011;10741;52.272;9.580;2023-04-15T11:58:04;35.93;;;18.73;;
21166;SDS011;10741;52.272;9.580;2023-04-15T12:00:32;31.73;;;18.50;;
21166;SDS011;10741;52.272;9.580;2023-04-15T12:11:20;37.10;;;21.23;;
21166;SDS011;10741;52.272;9.580;2023-04-15T12:19:10;41.67;;;24.37;;
21166;SDS011;10741;52.272;9.580;2023-04-15T12:21:39;39.33;;;21.67;;
21166;SDS011;10741;52.272;9.580;2023-04-15T12:24:07;41.33;;;23.00;;
21166;SDS011;10741;52.272;9.580;2023-04-15T12:26:36;43.53;;;24.33;;
21166;SDS011;10741;52.272;9.580;2023-04-15T12:29:11;42.13;;;23.77;;
21166;SDS011;10741;52.272;9.580;2023-04-15T12:31:48;41.07;;;23.47;;
21166;SDS011;10741;52.272;9.580;2023-04-15T12:34:27;44.60;;;25.57;;
21166;SDS011;10741;52.272;9.580;2023-04-15T12:36:58;48.53;;;25.43;;
21166;SDS011;10741;52.272;9.580;2023-04-15T12:39:26;42.90;;;25.00;;
21166;SDS011;10741;52.272;9.580;2023-04-15T12:41:53;47.43;;;26.13;;
21166;SDS011;10741;52.272;9.580;2023-04-15T12:44:21;46.00;;;25.90;;
21166;SDS011;10741;52.272;9.580;2023-04-15T12:46:48;47.47;;;27.00;;
21166;SDS011;10741;52.272;9.580;2023-04-15T12:49:19;57.67;;;29.87;;
21166;SDS011;10741;52.272;9.580;2023-04-15T12:51:51;53.00;;;27.67;;
21166;SDS011;10741;52.272;9.580;2023-04-15T12:54:17;58.13;;;29.40;;
21166;SDS011;10741;52.272;9.580;2023-04-15T12:56:44;54.23;;;29.13;;
21166;SDS011;10741;52.272;9.580;2023-04-15T12:59:10;62.20;;;30.70;;
21166;SDS011;10741;52.272;9.580;2023-04-15T13:01:37;60.87;;;31.00;;
21166;SDS011;10741;52.272;9.580;2023-04-15T13:04:03;57.23;;;31.63;;
21166;SDS011;10741;52.272;9.580;2023-04-15T13:06:30;63.73;;;33.17;;
21166;SDS011;10741;52.272;9.580;2023-04-15T13:09:00;61.40;;;33.77;;
21166;SDS011;10741;52.272;9.580;2023-04-15T13:11:27;61.73;;;33.20;;
21166;SDS011;10741;52.272;9.580;2023-04-15T13:13:58;63.80;;;33.93;;
21166;SDS011;10741;52.272;9.580;2023-04-15T13:16:25;68.43;;;34.87;;
21166;SDS011;10741;52.272;9.580;2023-04-15T13:18:51;67.37;;;36.67;;
21166;SDS011;10741;52.272;9.580;2023-04-15T13:21:17;70.03;;;36.30;;
21166;SDS011;10741;52.272;9.580;2023-04-15T13:23:43;70.20;;;35.17;;
21166;SDS011;10741;52.272;9.580;2023-04-15T13:26:09;71.50;;;37.47;;
21166;SDS011;10741;52.272;9.580;2023-04-15T13:28:35;66.10;;;37.03;;
21166;SDS011;10741;52.272;9.580;2023-04-15T13:31:01;75.67;;;38.40;;
21166;SDS011;10741;52.272;9.580;2023-04-15T13:33:27;71.30;;;38.37;;
21166;SDS011;10741;52.272;9.580;2023-04-15T13:35:53;66.47;;;36.90;;
21166;SDS011;10741;52.272;9.580;2023-04-15T13:38:18;70.63;;;35.90;;
21166;SDS011;10741;52.272;9.580;2023-04-15T13:40:44;69.30;;;37.03;;
21166;SDS011;10741;52.272;9.580;2023-04-15T13:43:10;68.93;;;38.00;;
21166;SDS011;10741;52.272;9.580;2023-04-15T13:45:36;62.60;;;36.23;;
21166;SDS011;10741;52.272;9.580;2023-04-15T13:48:02;65.77;;;37.00;;
21166;SDS011;10741;52.272;9.580;2023-04-15T13:50:28;64.93;;;37.07;;
21166;SDS011;10741;52.272;9.580;2023-04-15T13:52:54;66.87;;;36.47;;
21166;SDS011;10741;52.272;9.580;2023-04-15T13:55:20;71.83;;;39.57;;
21166;SDS011;10741;52.272;9.580;2023-04-15T13:57:46;67.80;;;38.93;;
21166;SDS011;10741;52.272;9.580;2023-04-15T14:00:11;67.00;;;38.73;;
21166;SDS011;10741;52.272;9.580;2023-04-15T14:02:38;70.07;;;37.97;;
21166;SDS011;10741;52.272;9.580;2023-04-15T14:05:04;65.67;;;37.80;;
21166;SDS011;10741;52.272;9.580;2023-04-15T14:07:30;64.40;;;38.20;;
21166;SDS011;10741;52.272;9.580;2023-04-15T14:09:56;64.70;;;39.10;;
21166;SDS011;10741;52.272;9.580;2023-04-15T14:12:22;64.97;;;37.57;;
21166;SDS011;10741;52.272;9.580;2023-04-15T14:14:47;69.57;;;39.80;;
21166;SDS011;10741;52.272;9.580;2023-04-15T14:17:13;63.20;;;38.87;;
21166;SDS011;10741;52.272;9.580;2023-04-15T14:19:39;61.63;;;37.17;;
21166;SDS011;10741;52.272;9.580;2023-04-15T14:22:05;56.50;;;35.53;;
21166;SDS011;10741;52.272;9.580;2023-04-15T14:24:30;59.20;;;37.50;;
21166;SDS011;10741;52.272;9.580;2023-04-15T14:26:57;56.20;;;36.40;;
21166;SDS011;10741;52.272;9.580;2023-04-15T14:29:23;56.07;;;34.33;;
21166;SDS011;10741;52.272;9.580;2023-04-15T14:31:49;53.77;;;34.97;;
21166;SDS011;10741;52.272;9.580;2023-04-15T14:34:15;49.33;;;33.00;;
21166;SDS011;10741;52.272;9.580;2023-04-15T14:36:41;51.97;;;33.03;;
21166;SDS011;10741;52.272;9.580;2023-04-15T14:39:07;54.13;;;34.20;;
21166;SDS011;10741;52.272;9.580;2023-04-15T14:41:33;52.40;;;32.03;;
21166;SDS011;10741;52.272;9.580;2023-04-15T14:43:59;55.43;;;33.43;;
21166;SDS011;10741;52.272;9.580;2023-04-15T14:46:25;43.13;;;30.40;;
21166;SDS011;10741;52.272;9.580;2023-04-15T14:48:51;47.90;;;31.50;;
21166;SDS011;10741;52.272;9.580;2023-04-15T14:51:17;42.43;;;29.93;;
21166;SDS011;10741;52.272;9.580;2023-04-15T14:53:43;45.87;;;31.07;;
21166;SDS011;10741;52.272;9.580;2023-04-15T14:56:09;47.10;;;31.57;;
21166;SDS011;10741;52.272;9.580;2023-04-15T14:58:35;46.03;;;30.53;;